createdAt,value
2023-05-24T00:01:34.042Z,12.72
2023-05-24T00:04:01.893Z,12.91
2023-05-24T00:06:29.572Z,12.46
2023-05-24T00:08:57.559Z,12.69
2023-05-24T00:11:27.692Z,12.92
2023-05-24T00:13:55.178Z,13.50
2023-05-24T00:16:22.721Z,13.26
2023-05-24T00:18:50.432Z,13.09
2023-05-24T00:21:17.888Z,12.92
2023-05-24T00:23:45.567Z,12.89
2023-05-24T00:26:13.311Z,13.16
2023-05-24T00:28:42.089Z,12.83
2023-05-24T00:31:09.528Z,12.80
2023-05-24T00:33:36.998Z,12.62
2023-05-24T00:36:04.666Z,13.04
2023-05-24T00:38:32.119Z,13.13
2023-05-24T00:41:01.013Z,13.52
2023-05-24T00:43:28.427Z,13.36
2023-05-24T00:46:14.419Z,12.77
2023-05-24T00:48:42.757Z,13.22
2023-05-24T00:51:10.497Z,13.17
2023-05-24T00:53:38.406Z,13.10
2023-05-24T00:56:07.441Z,13.67
2023-05-24T00:58:35.086Z,13.01
2023-05-24T01:01:04.970Z,13.37
2023-05-24T01:03:33.832Z,13.08
2023-05-24T01:06:03.465Z,13.37
2023-05-24T01:08:47.570Z,13.89
2023-05-24T01:11:26.303Z,13.11
2023-05-24T01:14:05.276Z,13.27
2023-05-24T01:16:46.629Z,13.37
2023-05-24T01:19:43.297Z,13.15
2023-05-24T01:22:25.155Z,13.01
2023-05-24T01:25:02.219Z,12.94
2023-05-24T01:27:32.707Z,12.74
2023-05-24T01:30:00.938Z,12.64
2023-05-24T01:32:29.035Z,13.36
2023-05-24T01:34:56.600Z,13.36
2023-05-24T01:37:24.278Z,12.94
2023-05-24T01:39:53.421Z,13.88
2023-05-24T01:42:26.873Z,13.24
2023-05-24T01:45:04.989Z,13.53
2023-05-24T01:47:43.159Z,13.79
2023-05-24T01:50:18.280Z,13.06
2023-05-24T01:52:47.549Z,13.48
2023-05-24T01:55:18.680Z,13.30
2023-05-24T01:57:49.665Z,13.21
2023-05-24T02:00:21.039Z,13.75
2023-05-24T02:02:48.906Z,13.18
2023-05-24T02:05:16.524Z,13.38
2023-05-24T02:07:43.984Z,13.83
2023-05-24T02:10:11.800Z,13.37
2023-05-24T02:12:39.247Z,13.53
2023-05-24T02:15:07.743Z,13.06
2023-05-24T02:17:36.527Z,13.77
2023-05-24T02:20:04.794Z,13.03
2023-05-24T02:22:32.248Z,13.51
2023-05-24T02:24:59.677Z,14.19
2023-05-24T02:27:27.095Z,13.94
2023-05-24T02:29:54.562Z,13.78
2023-05-24T02:32:22.015Z,14.17
2023-05-24T02:34:50.767Z,13.90
2023-05-24T02:37:18.222Z,13.97
2023-05-24T02:39:45.659Z,14.19
2023-05-24T02:42:13.087Z,14.20
2023-05-24T02:44:42.522Z,13.82
2023-05-24T02:47:09.976Z,14.27
2023-05-24T02:49:37.397Z,13.78
2023-05-24T02:52:06.809Z,13.63
2023-05-24T02:54:34.257Z,13.60
2023-05-24T02:57:01.711Z,13.67
2023-05-24T02:59:29.401Z,13.64
2023-05-24T03:01:57.007Z,13.45
2023-05-24T03:04:24.456Z,13.34
2023-05-24T03:06:53.554Z,13.87
2023-05-24T03:09:22.311Z,13.38
2023-05-24T03:11:49.818Z,13.22
2023-05-24T03:14:17.434Z,13.12
2023-05-24T03:16:45.299Z,13.61
2023-05-24T03:19:12.811Z,13.80
2023-05-24T03:21:40.273Z,13.33
2023-05-24T03:24:09.520Z,13.75
2023-05-24T03:26:38.274Z,13.52
2023-05-24T03:29:05.737Z,13.71
2023-05-24T03:31:33.180Z,13.86
2023-05-24T03:34:00.700Z,13.04
2023-05-24T03:36:28.932Z,13.32
2023-05-24T03:38:58.276Z,12.63
2023-05-24T03:41:26.213Z,12.95
2023-05-24T03:43:55.071Z,12.55
2023-05-24T03:46:22.600Z,12.75
2023-05-24T03:48:50.143Z,12.47
2023-05-24T03:51:18.089Z,12.66
2023-05-24T03:53:46.185Z,12.47
2023-05-24T03:56:13.586Z,12.31
2023-05-24T03:58:41.045Z,12.85
2023-05-24T04:01:12.585Z,12.90
2023-05-24T04:03:46.082Z,12.65
2023-05-24T04:06:16.190Z,12.96
2023-05-24T04:08:44.940Z,13.02
2023-05-24T04:11:12.448Z,12.57
2023-05-24T04:13:39.841Z,12.87
2023-05-24T04:16:09.642Z,12.74
2023-05-24T04:18:38.498Z,13.03
2023-05-24T04:21:06.162Z,13.17
2023-05-24T04:23:33.569Z,13.04
2023-05-24T04:26:01.216Z,13.01
2023-05-24T04:28:28.714Z,12.83
2023-05-24T04:30:57.677Z,12.95
2023-05-24T04:33:25.181Z,13.96
2023-05-24T04:35:54.001Z,14.49
2023-05-24T04:38:22.161Z,14.02
2023-05-24T04:40:49.667Z,14.07
2023-05-24T04:43:17.077Z,13.20
2023-05-24T04:45:44.512Z,12.85
2023-05-24T04:48:12.149Z,13.58
2023-05-24T04:50:40.126Z,13.27
2023-05-24T04:53:08.996Z,13.44
2023-05-24T04:55:36.420Z,13.41
2023-05-24T04:58:04.338Z,13.25
2023-05-24T05:00:32.789Z,13.44
2023-05-24T05:03:00.444Z,12.56
2023-05-24T05:05:27.988Z,13.40
2023-05-24T05:07:55.608Z,12.98
2023-05-24T05:10:24.395Z,12.91
2023-05-24T05:12:51.963Z,12.81
2023-05-24T05:15:19.448Z,13.04
2023-05-24T05:17:46.916Z,13.14
2023-05-24T05:20:14.418Z,12.98
2023-05-24T05:22:46.811Z,12.65
2023-05-24T05:25:14.296Z,12.52
2023-05-24T05:27:43.134Z,12.86
2023-05-24T05:30:11.495Z,12.92
2023-05-24T05:32:39.059Z,12.90
2023-05-24T05:35:07.552Z,13.19
2023-05-24T05:37:35.052Z,12.54
2023-05-24T05:40:03.928Z,12.63
2023-05-24T05:42:31.384Z,13.12
2023-05-24T05:45:00.214Z,13.62
2023-05-24T05:47:27.692Z,13.46
2023-05-24T05:49:55.188Z,13.40
2023-05-24T05:52:22.626Z,12.95
2023-05-24T05:54:50.247Z,12.90
2023-05-24T05:57:19.671Z,13.20
2023-05-24T05:59:47.104Z,13.40
2023-05-24T06:02:16.015Z,13.79
2023-05-24T06:04:43.506Z,13.42
2023-05-24T06:07:11.022Z,13.37
2023-05-24T06:09:38.566Z,13.33
2023-05-24T06:12:06.621Z,13.11
2023-05-24T06:14:34.430Z,13.16
2023-05-24T06:17:02.102Z,13.39
2023-05-24T06:19:31.078Z,13.22
2023-05-24T06:21:58.572Z,13.63
2023-05-24T06:24:26.047Z,14.02
2023-05-24T06:26:54.056Z,13.60
2023-05-24T06:29:22.287Z,13.89
2023-05-24T06:31:50.927Z,13.66
2023-05-24T06:34:21.138Z,13.53
2023-05-24T06:36:52.958Z,13.90
2023-05-24T06:39:20.914Z,13.29
2023-05-24T06:41:51.179Z,12.77
2023-05-24T06:44:18.782Z,13.19
2023-05-24T06:46:46.485Z,12.93
2023-05-24T06:49:14.066Z,13.62
2023-05-24T06:51:41.668Z,14.02
2023-05-24T06:54:10.489Z,13.40
2023-05-24T06:56:37.947Z,13.27
2023-05-24T06:59:05.920Z,12.91
2023-05-24T07:01:33.747Z,13.25
2023-05-24T07:04:01.294Z,13.62
2023-05-24T07:06:28.756Z,13.82
2023-05-24T07:08:56.189Z,13.21
2023-05-24T07:11:25.217Z,13.38
2023-05-24T07:13:52.683Z,12.91
2023-05-24T07:16:20.246Z,13.21
2023-05-24T07:18:47.758Z,13.45
2023-05-24T07:21:15.194Z,13.97
2023-05-24T07:23:42.663Z,14.19
2023-05-24T07:26:10.097Z,14.94
2023-05-24T07:28:40.441Z,14.00
2023-05-24T07:31:09.910Z,13.97
2023-05-24T07:33:38.135Z,14.81
2023-05-24T07:36:07.080Z,13.99
2023-05-24T07:38:35.176Z,14.11
2023-05-24T07:41:04.694Z,15.01
2023-05-24T07:43:32.164Z,14.51
2023-05-24T07:46:01.144Z,15.60
2023-05-24T07:48:28.612Z,15.82
2023-05-24T07:50:56.822Z,14.80
2023-05-24T07:53:24.343Z,14.82
2023-05-24T07:55:51.914Z,15.22
2023-05-24T07:58:19.482Z,14.61
2023-05-24T08:00:46.898Z,14.95
2023-05-24T08:03:17.421Z,15.25
2023-05-24T08:05:45.129Z,16.57
2023-05-24T08:08:12.809Z,17.59
2023-05-24T08:10:40.265Z,17.79
2023-05-24T08:13:07.961Z,17.72
2023-05-24T08:15:35.395Z,18.07
2023-05-24T08:18:03.509Z,18.15
2023-05-24T08:20:36.120Z,17.92
2023-05-24T08:23:03.749Z,17.67
2023-05-24T08:25:31.588Z,17.73
2023-05-24T08:27:59.074Z,17.84
2023-05-24T08:30:26.508Z,18.08
2023-05-24T08:32:53.961Z,17.75
2023-05-24T08:35:22.235Z,17.90
2023-05-24T08:37:51.573Z,18.24
2023-05-24T08:40:19.255Z,18.32
2023-05-24T08:42:47.114Z,18.22
2023-05-24T08:45:16.119Z,17.10
2023-05-24T08:47:44.131Z,15.61
2023-05-24T08:50:12.072Z,16.66
2023-05-24T08:52:41.390Z,16.84
2023-05-24T08:55:12.372Z,16.80
2023-05-24T08:57:41.623Z,16.06
2023-05-24T09:00:11.796Z,16.94
2023-05-24T09:02:40.572Z,16.55
2023-05-24T09:05:11.434Z,16.38
2023-05-24T09:07:39.378Z,16.97
2023-05-24T09:10:08.950Z,16.13
2023-05-24T09:12:39.713Z,16.72
2023-05-24T09:15:09.491Z,16.61
2023-05-24T09:17:37.950Z,16.97
2023-05-24T09:20:10.028Z,15.93
2023-05-24T09:22:40.783Z,15.83
2023-05-24T09:25:10.858Z,17.00
2023-05-24T09:27:39.932Z,17.11
2023-05-24T09:30:11.206Z,16.15
2023-05-24T09:32:39.175Z,16.84
2023-05-24T09:35:10.309Z,15.93
2023-05-24T09:37:40.256Z,15.84
2023-05-24T09:40:18.353Z,15.57
2023-05-24T09:42:48.956Z,15.60
2023-05-24T09:45:16.623Z,15.65
2023-05-24T09:47:45.421Z,16.18
2023-05-24T09:50:14.407Z,15.59
2023-05-24T09:52:42.713Z,16.30
2023-05-24T09:55:13.383Z,15.44
2023-05-24T09:57:41.196Z,15.17
2023-05-24T10:00:17.690Z,15.31
2023-05-24T10:02:53.480Z,16.12
2023-05-24T10:05:22.207Z,15.43
2023-05-24T10:07:49.911Z,16.18
2023-05-24T10:10:17.838Z,16.08
2023-05-24T10:12:46.993Z,16.15
2023-05-24T10:15:16.621Z,16.43
2023-05-24T10:17:44.372Z,17.30
2023-05-24T10:20:13.505Z,17.58
2023-05-24T10:22:46.309Z,18.15
2023-05-24T10:25:19.415Z,18.32
2023-05-24T10:27:49.580Z,18.68
2023-05-24T10:30:27.964Z,19.12
2023-05-24T10:32:57.863Z,18.77
2023-05-24T10:35:26.881Z,19.22
2023-05-24T10:37:55.694Z,19.48
2023-05-24T10:40:26.049Z,18.06
2023-05-24T10:42:54.260Z,18.37
2023-05-24T10:45:35.596Z,17.21
2023-05-24T10:48:10.371Z,18.62
2023-05-24T10:50:37.864Z,17.64
2023-05-24T10:53:15.906Z,18.39
2023-05-24T10:55:53.698Z,17.36
2023-05-24T10:58:21.731Z,17.65
2023-05-24T11:00:53.381Z,18.01
2023-05-24T11:03:24.613Z,17.65
2023-05-24T11:05:55.355Z,16.47
2023-05-24T11:08:27.471Z,16.40
2023-05-24T11:11:22.318Z,16.34
2023-05-24T11:13:57.662Z,16.20
2023-05-24T11:16:39.271Z,16.70
2023-05-24T11:19:15.058Z,16.61
2023-05-24T11:21:45.479Z,16.60
2023-05-24T11:24:13.152Z,17.29
2023-05-24T11:26:41.146Z,17.25
2023-05-24T11:29:09.132Z,17.58
2023-05-24T11:31:43.162Z,17.64
2023-05-24T11:34:11.831Z,17.66
2023-05-24T11:36:39.662Z,17.52
2023-05-24T11:39:09.418Z,17.98
2023-05-24T11:41:38.943Z,17.89
2023-05-24T11:44:09.723Z,17.54
2023-05-24T11:46:40.084Z,18.83
2023-05-24T11:49:07.763Z,18.17
2023-05-24T11:51:37.480Z,18.19
2023-05-24T11:54:05.229Z,18.37
2023-05-24T11:56:34.054Z,18.22
2023-05-24T11:59:09.685Z,17.38
2023-05-24T12:01:39.210Z,16.34
2023-05-24T12:04:08.730Z,16.61
2023-05-24T12:06:39.578Z,16.69
2023-05-24T12:09:10.357Z,16.40
2023-05-24T12:11:42.183Z,16.16
2023-05-24T12:14:13.562Z,16.90
2023-05-24T12:16:43.136Z,17.39
2023-05-24T12:19:31.744Z,17.37
2023-05-24T12:22:01.220Z,17.75
2023-05-24T12:24:28.958Z,17.85
2023-05-24T12:27:01.180Z,17.97
2023-05-24T12:29:28.841Z,18.05
2023-05-24T12:31:57.630Z,18.36
2023-05-24T12:34:25.340Z,18.41
2023-05-24T12:36:57.034Z,18.84
2023-05-24T12:39:31.017Z,18.08
2023-05-24T12:42:01.587Z,18.29
2023-05-24T12:44:30.038Z,18.10
2023-05-24T12:46:59.720Z,18.56
2023-05-24T12:49:27.836Z,18.86
2023-05-24T12:51:56.565Z,18.50
2023-05-24T12:54:25.520Z,19.00
2023-05-24T12:56:56.769Z,19.23
2023-05-24T12:59:25.236Z,18.51
2023-05-24T13:01:53.122Z,19.01
2023-05-24T13:04:24.383Z,18.54
2023-05-24T13:06:52.013Z,18.20
2023-05-24T13:09:22.367Z,18.16
2023-05-24T13:11:49.879Z,17.16
2023-05-24T13:14:18.178Z,17.81
2023-05-24T13:16:45.950Z,17.95
2023-05-24T13:19:13.769Z,18.61
2023-05-24T13:21:42.724Z,17.88
2023-05-24T13:24:10.329Z,18.86
2023-05-24T13:26:38.698Z,18.57
2023-05-24T13:31:38.304Z,18.47
2023-05-24T13:34:05.944Z,17.98
2023-05-24T13:36:33.592Z,18.01
2023-05-24T13:39:14.920Z,18.26
2023-05-24T13:41:43.790Z,17.97
2023-05-24T13:44:11.585Z,17.92
2023-05-24T13:46:39.321Z,18.71
2023-05-24T13:49:07.241Z,18.51
2023-05-24T13:51:34.753Z,18.45
2023-05-24T13:54:04.859Z,17.34
2023-05-24T13:56:34.188Z,18.95
2023-05-24T13:59:02.680Z,18.54
2023-05-24T14:01:30.428Z,18.31
2023-05-24T14:03:57.894Z,18.73
2023-05-24T14:06:25.472Z,18.51
2023-05-24T14:08:53.041Z,18.94
2023-05-24T14:11:22.309Z,19.16
2023-05-24T14:16:21.164Z,18.46
2023-05-24T14:18:50.232Z,18.06
2023-05-24T14:21:18.908Z,18.41
2023-05-24T14:23:46.383Z,18.38
2023-05-24T14:26:14.026Z,19.30
2023-05-24T14:28:42.832Z,19.23
2023-05-24T14:31:10.391Z,19.06
2023-05-24T14:33:38.811Z,18.82
2023-05-24T14:36:06.949Z,19.24
2023-05-24T14:38:34.530Z,19.26
2023-05-24T14:41:02.084Z,19.35
2023-05-24T14:43:29.629Z,19.72
2023-05-24T14:45:58.573Z,19.42
2023-05-24T14:48:26.086Z,19.46
2023-05-24T14:50:53.624Z,19.49
2023-05-24T14:53:21.094Z,18.72
2023-05-24T14:55:48.734Z,19.64
2023-05-24T14:58:16.316Z,19.06
2023-05-24T15:00:44.206Z,19.47
2023-05-24T15:03:14.581Z,19.95
2023-05-24T15:05:42.742Z,18.56
2023-05-24T15:08:10.953Z,19.00
2023-05-24T15:10:39.921Z,19.20
2023-05-24T15:13:08.126Z,17.88
2023-05-24T15:15:35.858Z,17.88
2023-05-24T15:18:03.441Z,17.57
2023-05-24T15:20:35.796Z,18.88
2023-05-24T15:23:03.807Z,19.04
2023-05-24T15:25:31.357Z,18.87
2023-05-24T15:27:58.879Z,19.26
2023-05-24T15:30:26.547Z,18.79
2023-05-24T15:32:54.089Z,18.32
2023-05-24T15:35:21.806Z,19.13
2023-05-24T15:37:50.612Z,19.30
2023-05-24T15:40:18.686Z,19.73
2023-05-24T15:42:46.415Z,19.44
2023-05-24T15:45:13.983Z,18.54
2023-05-24T15:47:41.500Z,18.30
2023-05-24T15:50:09.961Z,18.40
2023-05-24T15:52:37.544Z,19.07
2023-05-24T15:55:07.631Z,19.41
2023-05-24T15:57:35.234Z,19.76
2023-05-24T16:00:03.880Z,19.78
2023-05-24T16:02:31.467Z,19.67
2023-05-24T16:04:58.940Z,19.53
2023-05-24T16:07:26.447Z,19.20
2023-05-24T16:09:54.120Z,19.66
2023-05-24T16:12:22.905Z,19.02
2023-05-24T16:14:50.534Z,19.75
2023-05-24T16:17:18.074Z,19.61
2023-05-24T16:19:47.117Z,19.57
2023-05-24T16:22:14.742Z,19.77
2023-05-24T16:24:42.626Z,19.49
2023-05-24T16:27:10.222Z,19.65
2023-05-24T16:29:39.369Z,19.33
2023-05-24T16:32:08.617Z,19.80
2023-05-24T16:34:52.108Z,19.35
2023-05-24T16:37:23.272Z,19.95
2023-05-24T16:39:50.806Z,19.81
2023-05-24T16:42:18.337Z,19.97
2023-05-24T16:44:47.155Z,19.90
2023-05-24T16:47:14.726Z,19.58
2023-05-24T16:49:42.322Z,19.31
2023-05-24T16:52:09.838Z,19.64
2023-05-24T16:54:37.360Z,20.01
2023-05-24T16:57:05.228Z,18.80
2023-05-24T16:59:32.874Z,19.01
2023-05-24T17:02:01.809Z,18.96
2023-05-24T17:04:29.342Z,19.42
2023-05-24T17:06:56.779Z,19.56
2023-05-24T17:09:24.339Z,19.67
2023-05-24T17:11:51.842Z,18.91
2023-05-24T17:14:19.515Z,19.17
2023-05-24T17:16:47.097Z,18.78
2023-05-24T17:19:16.017Z,19.21
2023-05-24T17:21:43.546Z,19.46
2023-05-24T17:24:11.183Z,19.49
2023-05-24T17:26:39.031Z,19.83
2023-05-24T17:29:06.573Z,18.90
2023-05-24T17:31:34.382Z,19.67
2023-05-24T17:34:01.970Z,19.47
2023-05-24T17:36:33.446Z,19.76
2023-05-24T17:39:00.950Z,19.79
2023-05-24T17:41:28.553Z,19.57
2023-05-24T17:43:56.018Z,19.42
2023-05-24T17:46:23.615Z,19.31
2023-05-24T17:48:51.866Z,19.34
2023-05-24T17:51:19.915Z,18.89
2023-05-24T17:53:48.660Z,18.39
2023-05-24T17:56:16.154Z,19.05
2023-05-24T17:58:44.938Z,18.82
2023-05-24T18:01:15.196Z,19.23
2023-05-24T18:03:42.779Z,18.77
2023-05-24T18:06:10.378Z,17.92
2023-05-24T18:08:43.063Z,18.01
2023-05-24T18:11:13.268Z,17.41
2023-05-24T18:13:41.974Z,17.19
2023-05-24T18:16:11.016Z,18.08
2023-05-24T18:18:38.879Z,18.25
2023-05-24T18:21:06.750Z,17.61
2023-05-24T18:23:37.699Z,17.97
2023-05-24T18:26:07.947Z,18.36
2023-05-24T18:28:38.005Z,18.67
2023-05-24T18:31:08.292Z,17.78
2023-05-24T18:33:36.032Z,18.34
2023-05-24T18:36:04.404Z,18.33
2023-05-24T18:38:32.477Z,18.33
2023-05-24T18:40:59.944Z,18.58
2023-05-24T18:43:27.513Z,18.69
2023-05-24T18:45:56.438Z,18.32
2023-05-24T18:48:23.968Z,18.53
2023-05-24T18:50:52.055Z,18.28
2023-05-24T18:53:19.618Z,18.24
2023-05-24T18:55:47.873Z,18.55
2023-05-24T18:58:15.460Z,18.08
2023-05-24T19:00:43.025Z,18.47
2023-05-24T19:03:13.150Z,18.44
2023-05-24T19:05:43.514Z,18.43
2023-05-24T19:08:11.871Z,18.50
2023-05-24T19:10:39.468Z,18.40
2023-05-24T19:13:06.985Z,18.46
2023-05-24T19:15:36.581Z,18.47
2023-05-24T19:18:04.219Z,18.40
2023-05-24T19:20:33.199Z,18.15
2023-05-24T19:23:00.687Z,18.16
2023-05-24T19:25:28.209Z,18.21
2023-05-24T19:27:59.816Z,18.18
2023-05-24T19:30:27.888Z,18.04
2023-05-24T19:32:55.474Z,17.83
2023-05-24T19:35:23.212Z,17.69
2023-05-24T19:37:52.537Z,17.73
2023-05-24T19:40:20.295Z,17.58
2023-05-24T19:42:47.740Z,17.51
2023-05-24T19:45:15.269Z,17.79
2023-05-24T19:47:42.836Z,17.91
2023-05-24T19:50:13.328Z,17.70
2023-05-24T19:52:40.827Z,17.76
2023-05-24T19:55:10.775Z,17.68
2023-05-24T19:57:38.267Z,17.72
2023-05-24T20:00:07.022Z,17.63
2023-05-24T20:02:36.539Z,17.57
2023-05-24T20:05:04.847Z,17.26
2023-05-24T20:07:32.433Z,17.50
2023-05-24T20:10:00.814Z,17.49
2023-05-24T20:12:30.812Z,17.55
2023-05-24T20:14:58.243Z,17.65
2023-05-24T20:17:25.725Z,17.55
2023-05-24T20:19:53.240Z,17.55
2023-05-24T20:22:21.014Z,17.46
2023-05-24T20:24:48.479Z,17.48
2023-05-24T20:27:15.977Z,17.14
2023-05-24T20:29:44.969Z,17.14
2023-05-24T20:32:12.418Z,17.00
2023-05-24T20:34:39.952Z,17.17
2023-05-24T20:37:07.511Z,16.95
2023-05-24T20:39:34.989Z,17.13
2023-05-24T20:42:02.405Z,16.61
2023-05-24T20:44:29.887Z,16.89
2023-05-24T20:46:58.636Z,16.91
2023-05-24T20:49:26.158Z,16.89
2023-05-24T20:51:53.586Z,16.88
2023-05-24T20:54:21.059Z,16.89
2023-05-24T20:56:48.466Z,16.91
2023-05-24T20:59:16.021Z,16.99
2023-05-24T21:01:43.802Z,17.02
2023-05-24T21:04:12.628Z,16.73
2023-05-24T21:06:40.387Z,16.87
2023-05-24T21:09:07.843Z,16.49
2023-05-24T21:11:35.414Z,16.66
2023-05-24T21:14:02.974Z,16.40
2023-05-24T21:16:30.516Z,16.66
2023-05-24T21:19:00.698Z,16.63
2023-05-24T21:21:29.497Z,16.60
2023-05-24T21:23:57.776Z,16.50
2023-05-24T21:26:26.417Z,16.52
2023-05-24T21:28:53.925Z,16.34
2023-05-24T21:31:21.556Z,16.08
2023-05-24T21:33:49.298Z,15.74
2023-05-24T21:36:18.410Z,16.08
2023-05-24T21:38:47.685Z,16.33
2023-05-24T21:41:15.114Z,16.06
2023-05-24T21:43:42.826Z,15.52
2023-05-24T21:46:10.279Z,15.43
2023-05-24T21:48:37.753Z,15.76
2023-05-24T21:51:05.262Z,15.92
2023-05-24T21:53:34.823Z,15.99
2023-05-24T21:56:03.633Z,15.98
2023-05-24T21:58:31.180Z,15.52
2023-05-24T22:00:58.664Z,15.62
2023-05-24T22:03:26.248Z,16.16
2023-05-24T22:05:53.756Z,15.83
2023-05-24T22:08:21.207Z,15.71
2023-05-24T22:10:48.668Z,15.93
2023-05-24T22:13:17.522Z,15.90
2023-05-24T22:15:45.164Z,15.95
2023-05-24T22:18:17.429Z,16.02
2023-05-24T22:20:45.734Z,16.29
2023-05-24T22:23:14.721Z,15.43
2023-05-24T22:25:42.632Z,15.28
2023-05-24T22:28:10.259Z,14.94
2023-05-24T22:30:40.671Z,15.15
2023-05-24T22:33:08.237Z,15.14
2023-05-24T22:35:35.729Z,15.73
2023-05-24T22:38:03.251Z,15.76
2023-05-24T22:40:30.730Z,15.28
2023-05-24T22:42:58.171Z,15.08
2023-05-24T22:45:25.593Z,15.40
2023-05-24T22:47:58.276Z,15.21
2023-05-24T22:50:26.213Z,14.77
2023-05-24T22:52:56.484Z,15.69
2023-05-24T22:55:24.403Z,15.97
2023-05-24T22:57:51.911Z,16.01
2023-05-24T23:00:20.583Z,15.95
2023-05-24T23:02:48.125Z,16.06
2023-05-24T23:05:17.290Z,16.06
2023-05-24T23:07:45.945Z,15.96
2023-05-24T23:10:13.406Z,15.80
2023-05-24T23:12:42.211Z,15.96
2023-05-24T23:15:11.464Z,15.96
2023-05-24T23:17:38.954Z,16.05
2023-05-24T23:20:09.908Z,16.02
2023-05-24T23:22:38.948Z,15.90
2023-05-24T23:25:07.927Z,15.73
2023-05-24T23:27:35.512Z,15.61
2023-05-24T23:30:02.966Z,15.62
2023-05-24T23:32:30.453Z,15.64
2023-05-24T23:34:57.898Z,15.65
2023-05-24T23:37:25.458Z,15.56
2023-05-24T23:39:54.233Z,15.51
2023-05-24T23:42:21.669Z,15.40
2023-05-24T23:44:49.098Z,15.55
2023-05-24T23:47:16.680Z,15.53
2023-05-24T23:49:44.148Z,15.57
2023-05-24T23:52:12.152Z,15.46
2023-05-24T23:54:39.895Z,15.49
2023-05-24T23:57:08.675Z,15.50
2023-05-24T23:59:36.336Z,15.50
